createdAt,value
2018-09-04T00:00:35.136Z,31.25
2018-09-04T00:05:38.837Z,31.00
2018-09-04T00:10:42.442Z,32.40
2018-09-04T00:15:46.016Z,30.25
2018-09-04T00:20:49.648Z,31.60
2018-09-04T00:25:53.300Z,30.50
2018-09-04T00:30:56.895Z,30.75
2018-09-04T00:36:00.520Z,29.20
2018-09-04T00:41:04.129Z,29.25
2018-09-04T00:46:08.009Z,32.20
2018-09-04T00:51:11.719Z,30.80
2018-09-04T00:56:15.370Z,31.50
2018-09-04T01:01:19.070Z,30.75
2018-09-04T01:06:22.677Z,28.20
2018-09-04T01:11:26.367Z,29.00
2018-09-04T01:16:30.064Z,31.80
2018-09-04T01:21:33.754Z,28.60
2018-09-04T01:26:37.376Z,31.60
2018-09-04T01:31:41.939Z,31.25
2018-09-04T01:36:45.577Z,30.00
2018-09-04T01:41:49.246Z,31.75
2018-09-04T01:46:53.001Z,29.00
2018-09-04T01:51:56.711Z,30.60
2018-09-04T01:57:00.396Z,31.25
2018-09-04T02:02:04.030Z,29.25
2018-09-04T02:07:07.652Z,30.60
2018-09-04T02:12:11.340Z,28.75
2018-09-04T02:17:15.012Z,29.40
2018-09-04T02:22:18.691Z,28.60
2018-09-04T02:27:22.313Z,30.00
2018-09-04T02:32:25.917Z,28.80
2018-09-04T02:37:29.460Z,28.60
2018-09-04T02:42:33.041Z,30.00
2018-09-04T02:47:36.686Z,28.60
2018-09-04T02:52:40.389Z,28.75
2018-09-04T02:57:44.000Z,31.20
2018-09-04T03:02:47.604Z,28.20
2018-09-04T03:07:51.247Z,29.00
2018-09-04T03:12:54.888Z,30.00
2018-09-04T03:17:58.524Z,29.75
2018-09-04T03:23:02.225Z,28.50
2018-09-04T03:28:05.864Z,28.80
2018-09-04T03:33:09.581Z,29.50
2018-09-04T03:38:13.285Z,27.00
2018-09-04T03:43:17.039Z,29.80
2018-09-04T03:48:20.663Z,28.50
2018-09-04T03:53:24.290Z,31.75
2018-09-04T03:58:27.977Z,29.60
2018-09-04T04:03:31.630Z,31.60
2018-09-04T04:08:35.443Z,30.20
2018-09-04T04:13:39.006Z,30.50
2018-09-04T04:18:43.066Z,29.50
2018-09-04T04:23:46.722Z,31.75
2018-09-04T04:28:50.339Z,32.50
2018-09-04T04:33:54.045Z,29.20
2018-09-04T04:38:57.722Z,29.60
2018-09-04T04:44:01.343Z,34.00
2018-09-04T04:49:05.318Z,29.50
2018-09-04T04:54:08.979Z,31.80
2018-09-04T04:59:12.625Z,31.80
2018-09-04T05:04:16.315Z,34.25
2018-09-04T05:09:19.978Z,32.40
2018-09-04T05:14:23.607Z,30.75
2018-09-04T05:19:27.286Z,32.00
2018-09-04T05:24:30.898Z,30.60
2018-09-04T05:29:34.558Z,31.00
2018-09-04T05:34:38.158Z,30.75
2018-09-04T05:39:41.746Z,30.25
2018-09-04T05:44:45.414Z,29.75
2018-09-04T05:49:49.026Z,31.25
2018-09-04T05:54:52.620Z,31.50
2018-09-04T05:59:56.307Z,31.40
2018-09-04T06:05:00.509Z,32.40
2018-09-04T06:10:04.246Z,32.25
2018-09-04T06:15:07.874Z,31.80
2018-09-04T06:20:11.514Z,32.40
2018-09-04T06:25:15.228Z,32.40
2018-09-04T06:30:18.876Z,34.75
2018-09-04T06:35:22.519Z,34.00
2018-09-04T06:40:26.171Z,31.60
2018-09-04T06:45:29.867Z,34.20
2018-09-04T06:50:33.521Z,33.00
2018-09-04T06:55:37.193Z,32.25
2018-09-04T07:00:40.833Z,30.60
2018-09-04T07:05:44.458Z,29.80
2018-09-04T07:10:48.059Z,32.25
2018-09-04T07:15:51.828Z,31.20
2018-09-04T07:20:55.454Z,32.50
2018-09-04T07:25:59.149Z,31.00
2018-09-04T07:31:02.774Z,32.40
2018-09-04T07:36:06.885Z,31.75
2018-09-04T07:41:10.547Z,32.60
2018-09-04T07:46:14.195Z,32.75
2018-09-04T07:51:17.926Z,30.50
2018-09-04T07:56:21.559Z,32.00
2018-09-04T08:01:25.300Z,34.25
2018-09-04T08:06:28.972Z,31.00
2018-09-04T08:11:32.655Z,31.00
2018-09-04T08:16:36.703Z,31.75
2018-09-04T08:21:40.391Z,29.75
2018-09-04T08:26:44.082Z,32.25
2018-09-04T08:31:47.705Z,31.60
2018-09-04T08:36:51.437Z,32.25
2018-09-04T08:41:55.067Z,33.60
2018-09-04T08:46:58.704Z,32.00
2018-09-04T08:52:02.349Z,31.50
2018-09-04T08:57:06.213Z,31.25
2018-09-04T09:02:09.825Z,29.60
2018-09-04T09:07:13.602Z,30.50
2018-09-04T09:12:17.331Z,32.75
2018-09-04T09:17:20.945Z,32.00
2018-09-04T09:22:24.536Z,34.20
2018-09-04T09:27:28.094Z,34.50
2018-09-04T09:32:31.777Z,29.60
2018-09-04T09:37:35.417Z,34.25
2018-09-04T09:42:39.108Z,30.50
2018-09-04T09:47:48.790Z,30.80
2018-09-04T09:52:52.416Z,31.00
2018-09-04T09:57:56.046Z,34.75
2018-09-04T10:03:06.155Z,30.60
2018-09-04T10:08:09.885Z,29.20
2018-09-04T10:13:13.518Z,30.25
2018-09-04T10:18:17.200Z,31.50
2018-09-04T10:23:20.932Z,30.40
2018-09-04T10:28:24.625Z,30.20
2018-09-04T10:33:28.234Z,29.00
2018-09-04T10:38:31.961Z,28.80
2018-09-04T10:43:35.587Z,32.75
2018-09-04T10:48:39.459Z,32.25
2018-09-04T10:53:43.041Z,30.80
2018-09-04T10:58:46.688Z,33.80
2018-09-04T11:03:50.327Z,32.00
2018-09-04T11:08:53.901Z,32.40
2018-09-04T11:13:57.552Z,33.20
2018-09-04T11:19:01.274Z,30.25
2018-09-04T11:24:05.017Z,29.20
2018-09-04T11:29:09.512Z,29.25
2018-09-04T11:34:13.146Z,30.75
2018-09-04T11:39:16.777Z,29.20
2018-09-04T11:44:20.434Z,29.75
2018-09-04T11:49:24.026Z,29.75
2018-09-04T11:54:27.720Z,29.80
2018-09-04T11:59:35.638Z,28.75
2018-09-04T12:04:39.232Z,30.00
2018-09-04T12:09:42.959Z,28.80
2018-09-04T12:14:46.659Z,28.80
2018-09-04T12:20:07.794Z,26.00
2018-09-04T12:25:11.337Z,28.20
2018-09-04T12:30:14.978Z,28.25
2018-09-04T12:35:18.648Z,26.80
2018-09-04T12:40:22.255Z,26.40
2018-09-04T12:45:26.019Z,28.25
2018-09-04T12:50:29.639Z,26.60
2018-09-04T12:55:33.335Z,24.75
2018-09-04T13:00:37.001Z,23.25
2018-09-04T13:05:41.163Z,24.60
2018-09-04T13:10:44.943Z,26.80
2018-09-04T13:15:56.501Z,24.00
2018-09-04T13:21:05.289Z,27.80
2018-09-04T13:26:08.941Z,25.75
2018-09-04T13:31:12.595Z,24.00
2018-09-04T13:36:16.197Z,28.50
2018-09-04T13:41:19.831Z,25.00
2018-09-04T13:46:23.503Z,21.80
2018-09-04T13:51:27.141Z,21.75
2018-09-04T13:56:30.779Z,23.60
2018-09-04T14:01:34.372Z,23.20
2018-09-04T14:06:38.006Z,23.25
2018-09-04T14:11:41.647Z,21.00
2018-09-04T14:16:45.255Z,24.25
2018-09-04T14:21:49.076Z,21.50
2018-09-04T14:26:52.938Z,23.40
2018-09-04T14:31:56.640Z,25.20
2018-09-04T14:37:00.523Z,24.25
2018-09-04T14:42:04.361Z,22.20
2018-09-04T14:47:07.950Z,23.60
2018-09-04T14:52:11.601Z,21.80
2018-09-04T14:57:15.214Z,21.75
2018-09-04T15:02:18.831Z,19.75
2018-09-04T15:07:22.480Z,23.00
2018-09-04T15:12:26.105Z,22.75
2018-09-04T15:17:29.759Z,21.60
2018-09-04T15:22:33.526Z,22.75
2018-09-04T15:27:37.133Z,21.00
2018-09-04T15:32:40.746Z,20.80
2018-09-04T15:37:44.415Z,22.25
2018-09-04T15:42:48.052Z,21.25
2018-09-04T15:47:51.650Z,19.80
2018-09-04T15:52:55.298Z,19.25
2018-09-04T15:57:58.960Z,19.80
2018-09-04T16:03:02.623Z,22.00
2018-09-04T16:08:06.277Z,23.00
2018-09-04T16:13:09.888Z,21.00
2018-09-04T16:18:13.572Z,21.50
2018-09-04T16:23:17.450Z,20.50
2018-09-04T16:28:21.117Z,19.00
2018-09-04T16:33:24.832Z,20.80
2018-09-04T16:38:28.707Z,19.75
2018-09-04T16:43:32.367Z,17.75
2018-09-04T16:48:36.021Z,18.60
2018-09-04T16:53:39.589Z,17.75
2018-09-04T16:58:43.277Z,17.80
2018-09-04T17:03:47.033Z,19.40
2018-09-04T17:08:50.865Z,17.80
2018-09-04T17:13:54.729Z,18.50
2018-09-04T17:18:58.479Z,16.00
2018-09-04T17:24:02.033Z,19.25
2018-09-04T17:29:05.927Z,19.60
2018-09-04T17:34:09.875Z,19.40
2018-09-04T17:39:14.120Z,18.00
2018-09-04T17:44:18.438Z,18.50
2018-09-04T17:49:22.057Z,18.75
2018-09-04T17:54:25.697Z,18.00
2018-09-04T17:59:29.751Z,17.75
2018-09-04T18:04:34.385Z,15.75
2018-09-04T18:09:38.764Z,17.20
2018-09-04T18:14:42.782Z,15.50
2018-09-04T18:19:46.650Z,18.50
2018-09-04T18:24:51.658Z,17.00
2018-09-04T18:29:55.970Z,16.50
2018-09-04T18:35:00.050Z,16.60
2018-09-04T18:40:03.911Z,15.40
2018-09-04T18:45:08.380Z,19.20
2018-09-04T18:50:13.262Z,17.00
2018-09-04T18:55:17.972Z,16.00
2018-09-04T19:00:21.788Z,15.60
2018-09-04T19:05:26.889Z,18.20
2018-09-04T19:10:31.434Z,18.00
2018-09-04T19:15:36.328Z,19.00
2018-09-04T19:20:40.069Z,17.25
2018-09-04T19:25:44.490Z,18.00
2018-09-04T19:30:48.106Z,16.50
2018-09-04T19:35:53.414Z,21.40
2018-09-04T19:40:58.061Z,20.50
2018-09-04T19:46:02.259Z,19.75
2018-09-04T19:51:07.355Z,22.50
2018-09-04T19:56:12.154Z,18.50
2018-09-04T20:01:18.027Z,18.40
2018-09-04T20:06:24.417Z,19.80
2018-09-04T20:11:29.115Z,22.00
2018-09-04T20:16:34.934Z,21.40
2018-09-04T20:21:38.735Z,20.80
2018-09-04T20:26:43.713Z,17.50
2018-09-04T20:31:47.513Z,21.75
2018-09-04T20:36:51.190Z,17.00
2018-09-04T20:41:55.309Z,20.00
2018-09-04T20:46:59.965Z,19.40
2018-09-04T20:52:04.720Z,21.40
2018-09-04T20:57:27.451Z,19.75
2018-09-04T21:02:42.202Z,20.50
2018-09-04T21:08:02.317Z,16.60
2018-09-04T21:13:06.097Z,20.00
2018-09-04T21:18:10.441Z,17.25
2018-09-04T21:23:14.135Z,17.75
2018-09-04T21:28:17.756Z,19.60
2018-09-04T21:33:21.513Z,17.50
2018-09-04T21:38:25.185Z,19.00
2018-09-04T21:43:28.969Z,19.00
2018-09-04T21:48:32.708Z,20.00
2018-09-04T21:53:36.690Z,17.25
2018-09-04T21:58:40.335Z,17.00
2018-09-04T22:03:43.969Z,15.60
2018-09-04T22:08:47.790Z,17.25
2018-09-04T22:13:51.588Z,17.75
2018-09-04T22:18:55.410Z,17.00
2018-09-04T22:23:59.212Z,17.80
2018-09-04T22:29:02.994Z,18.00
2018-09-04T22:34:06.785Z,16.50
2018-09-04T22:39:11.218Z,16.75
2018-09-04T22:44:14.941Z,16.60
2018-09-04T22:49:18.737Z,15.50
2018-09-04T22:54:22.559Z,15.25
2018-09-04T22:59:27.261Z,15.00
2018-09-04T23:04:30.914Z,14.60
2018-09-04T23:09:34.576Z,17.25
2018-09-04T23:14:38.249Z,15.75
2018-09-04T23:19:41.925Z,14.80
2018-09-04T23:24:45.654Z,14.40
2018-09-04T23:29:50.393Z,15.40
2018-09-04T23:34:53.973Z,16.25
2018-09-04T23:39:57.608Z,13.50
2018-09-04T23:45:02.430Z,15.75
2018-09-04T23:50:07.109Z,15.50
2018-09-04T23:55:10.878Z,14.80
